createdAt,value
2019-01-13T00:00:40.937Z,0.937805
2019-01-13T00:01:50.523Z,0.907593
2019-01-13T00:03:00.144Z,0.87738
2019-01-13T00:04:09.792Z,0.937805
2019-01-13T00:05:19.439Z,0.947876
2019-01-13T00:06:29.048Z,0.947876
2019-01-13T00:07:38.602Z,0.978088
2019-01-13T00:08:48.180Z,1.018372
2019-01-13T00:09:57.767Z,1.038513
2019-01-13T00:11:07.351Z,1.038513
2019-01-13T00:12:17.082Z,1.098938
2019-01-13T00:13:26.592Z,1.12915
2019-01-13T00:14:36.154Z,1.12915
2019-01-13T00:15:45.866Z,1.098938
2019-01-13T00:16:55.353Z,1.078796
2019-01-13T00:18:04.916Z,1.11908
2019-01-13T00:19:14.487Z,1.11908
2019-01-13T00:20:24.057Z,1.12915
2019-01-13T00:21:34.423Z,1.11908
2019-01-13T00:22:43.961Z,1.098938
2019-01-13T00:23:54.502Z,1.058655
2019-01-13T00:25:04.144Z,1.058655
2019-01-13T00:26:13.859Z,1.048584
2019-01-13T00:27:23.440Z,1.058655
2019-01-13T00:28:33.068Z,1.038513
2019-01-13T00:29:42.663Z,1.008301
2019-01-13T00:30:52.225Z,0.988159
2019-01-13T00:32:01.790Z,0.988159
2019-01-13T00:33:11.414Z,0.988159
2019-01-13T00:34:21.139Z,1.048584
2019-01-13T00:35:31.998Z,1.058655
2019-01-13T00:36:40.354Z,1.078796
2019-01-13T00:37:49.996Z,1.058655
2019-01-13T00:38:59.822Z,1.048584
2019-01-13T00:40:09.429Z,1.078796
2019-01-13T00:41:19.131Z,1.058655
2019-01-13T00:42:28.779Z,1.048584
2019-01-13T00:43:38.415Z,1.058655
2019-01-13T00:44:47.972Z,1.078796
2019-01-13T00:45:57.701Z,1.058655
2019-01-13T00:47:07.352Z,1.12915
2019-01-13T00:48:16.929Z,1.11908
2019-01-13T00:49:26.517Z,1.078796
2019-01-13T00:50:36.106Z,1.078796
2019-01-13T00:51:45.727Z,1.078796
2019-01-13T00:52:55.276Z,1.078796
2019-01-13T00:54:04.856Z,1.078796
2019-01-13T00:55:14.429Z,1.139221
2019-01-13T00:56:24.052Z,1.159363
2019-01-13T00:57:33.680Z,1.12915
2019-01-13T00:58:43.315Z,1.12915
2019-01-13T00:59:52.805Z,1.139221
2019-01-13T01:01:02.418Z,1.159363
2019-01-13T01:02:12.008Z,1.189575
2019-01-13T01:03:21.575Z,1.239929
2019-01-13T01:04:31.224Z,1.239929
2019-01-13T01:05:40.848Z,1.219788
2019-01-13T01:06:50.384Z,1.189575
2019-01-13T01:07:59.932Z,1.189575
2019-01-13T01:09:09.584Z,1.169434
2019-01-13T01:10:19.178Z,1.159363
2019-01-13T01:11:28.697Z,1.11908
2019-01-13T01:12:38.319Z,1.11908
2019-01-13T01:13:47.866Z,1.139221
2019-01-13T01:14:57.453Z,1.139221
2019-01-13T01:16:07.027Z,1.139221
2019-01-13T01:17:16.582Z,1.169434
2019-01-13T01:18:26.169Z,1.219788
2019-01-13T01:19:35.785Z,1.219788
2019-01-13T01:20:45.373Z,1.229858
2019-01-13T01:21:54.972Z,1.219788
2019-01-13T01:23:04.516Z,1.229858
2019-01-13T01:24:14.131Z,1.199646
2019-01-13T01:25:23.683Z,1.199646
2019-01-13T01:26:33.268Z,1.219788
2019-01-13T01:27:42.798Z,1.229858
2019-01-13T01:28:52.419Z,1.239929
2019-01-13T01:30:02.016Z,1.219788
2019-01-13T01:31:11.633Z,1.199646
2019-01-13T01:32:21.201Z,1.219788
2019-01-13T01:33:30.792Z,1.239929
2019-01-13T01:34:40.388Z,1.229858
2019-01-13T01:35:50.057Z,1.239929
2019-01-13T01:36:59.598Z,1.239929
2019-01-13T01:38:09.224Z,1.239929
2019-01-13T01:39:19.846Z,1.229858
2019-01-13T01:40:29.384Z,1.229858
2019-01-13T01:41:38.956Z,1.219788
2019-01-13T01:42:48.573Z,1.219788
2019-01-13T01:43:58.167Z,1.189575
2019-01-13T01:45:07.758Z,1.159363
2019-01-13T01:46:17.362Z,1.139221
2019-01-13T01:47:26.919Z,1.12915
2019-01-13T01:48:36.497Z,1.159363
2019-01-13T01:49:46.099Z,1.139221
2019-01-13T01:50:55.716Z,1.12915
2019-01-13T01:52:05.258Z,1.139221
2019-01-13T01:53:14.782Z,1.139221
2019-01-13T01:54:24.360Z,1.139221
2019-01-13T01:55:33.903Z,1.11908
2019-01-13T01:56:43.420Z,1.11908
2019-01-13T01:57:53.005Z,1.12915
2019-01-13T01:59:02.548Z,1.159363
2019-01-13T02:00:12.153Z,1.169434
2019-01-13T02:01:21.702Z,1.189575
2019-01-13T02:02:31.282Z,1.169434
2019-01-13T02:03:40.904Z,1.169434
2019-01-13T02:04:50.417Z,1.169434
2019-01-13T02:06:00.129Z,1.169434
2019-01-13T02:07:09.666Z,1.159363
2019-01-13T02:08:19.256Z,1.12915
2019-01-13T02:09:29.771Z,1.139221
2019-01-13T02:10:39.344Z,1.159363
2019-01-13T02:11:48.911Z,1.169434
2019-01-13T02:12:58.571Z,1.169434
2019-01-13T02:14:08.100Z,1.159363
2019-01-13T02:15:17.673Z,1.139221
2019-01-13T02:16:27.318Z,1.189575
2019-01-13T02:17:36.888Z,1.239929
2019-01-13T02:18:46.482Z,1.239929
2019-01-13T02:19:56.091Z,1.280212
2019-01-13T02:21:05.730Z,1.310425
2019-01-13T02:22:15.276Z,1.310425
2019-01-13T02:23:24.893Z,1.300354
2019-01-13T02:24:34.491Z,1.300354
2019-01-13T02:25:44.063Z,1.310425
2019-01-13T02:26:53.634Z,1.37085
2019-01-13T02:28:03.313Z,1.38092
2019-01-13T02:29:13.050Z,1.37085
2019-01-13T02:30:22.774Z,1.401062
2019-01-13T02:31:32.520Z,1.401062
2019-01-13T02:32:42.026Z,1.350708
2019-01-13T02:33:51.539Z,1.38092
2019-01-13T02:35:01.142Z,1.38092
2019-01-13T02:36:10.776Z,1.401062
2019-01-13T02:37:20.390Z,1.38092
2019-01-13T02:38:29.960Z,1.38092
2019-01-13T02:39:39.573Z,1.421204
2019-01-13T02:40:49.156Z,1.401062
2019-01-13T02:41:58.709Z,1.37085
2019-01-13T02:43:08.282Z,1.310425
2019-01-13T02:44:17.916Z,1.310425
2019-01-13T02:45:27.570Z,1.350708
2019-01-13T02:46:37.198Z,1.401062
2019-01-13T02:47:46.889Z,1.401062
2019-01-13T02:48:56.563Z,1.38092
2019-01-13T02:50:06.245Z,1.37085
2019-01-13T02:51:15.931Z,1.37085
2019-01-13T02:52:25.623Z,1.320496
2019-01-13T02:53:35.412Z,1.340637
2019-01-13T02:54:45.451Z,1.340637
2019-01-13T02:55:55.426Z,1.310425
2019-01-13T02:57:04.997Z,1.310425
2019-01-13T02:58:14.566Z,1.340637
2019-01-13T02:59:24.181Z,1.340637
2019-01-13T03:00:33.756Z,1.340637
2019-01-13T03:01:43.364Z,1.320496
2019-01-13T03:02:52.922Z,1.320496
2019-01-13T03:04:02.545Z,1.320496
2019-01-13T03:05:12.155Z,1.310425
2019-01-13T03:06:21.736Z,1.310425
2019-01-13T03:07:31.341Z,1.320496
2019-01-13T03:08:40.898Z,1.320496
2019-01-13T03:09:50.528Z,1.38092
2019-01-13T03:11:00.137Z,1.421204
2019-01-13T03:12:09.732Z,1.451416
2019-01-13T03:13:19.296Z,1.481628
2019-01-13T03:14:28.985Z,1.451416
2019-01-13T03:15:38.627Z,1.441345
2019-01-13T03:16:48.201Z,1.451416
2019-01-13T03:17:57.787Z,1.441345
2019-01-13T03:19:06.357Z,1.451416
2019-01-13T03:20:15.964Z,1.50177
2019-01-13T03:21:25.511Z,1.531982
2019-01-13T03:22:35.047Z,1.531982
2019-01-13T03:23:44.651Z,1.562195
2019-01-13T03:24:54.230Z,1.582336
2019-01-13T03:26:03.830Z,1.582336
2019-01-13T03:27:13.426Z,1.582336
2019-01-13T03:28:22.987Z,1.602478
2019-01-13T03:29:32.524Z,1.602478
2019-01-13T03:30:42.168Z,1.592407
2019-01-13T03:31:51.727Z,1.62262
2019-01-13T03:33:01.317Z,1.63269
2019-01-13T03:34:10.850Z,1.683044
2019-01-13T03:35:20.437Z,1.672974
2019-01-13T03:36:29.955Z,1.672974
2019-01-13T03:37:39.512Z,1.672974
2019-01-13T03:38:49.065Z,1.662903
2019-01-13T03:39:58.602Z,1.62262
2019-01-13T03:41:08.135Z,1.62262
2019-01-13T03:42:17.695Z,1.592407
2019-01-13T03:43:27.210Z,1.592407
2019-01-13T03:44:36.750Z,1.602478
2019-01-13T03:45:46.350Z,1.592407
2019-01-13T03:46:55.981Z,1.552124
2019-01-13T03:48:05.871Z,1.50177
2019-01-13T03:49:15.408Z,1.421204
2019-01-13T03:50:25.087Z,1.320496
2019-01-13T03:51:34.643Z,1.229858
2019-01-13T03:52:52.421Z,1.189575
2019-01-13T03:53:53.812Z,1.098938
2019-01-13T03:55:03.366Z,1.018372
2019-01-13T03:56:12.903Z,0.978088
2019-01-13T03:57:22.448Z,0.957947
2019-01-13T03:58:31.994Z,0.917664
2019-01-13T03:59:41.521Z,0.87738
2019-01-13T04:00:51.116Z,0.87738
2019-01-13T04:02:00.659Z,0.917664
2019-01-13T04:03:10.201Z,0.947876
2019-01-13T04:04:19.771Z,0.978088
2019-01-13T04:05:29.341Z,0.978088
2019-01-13T04:06:38.894Z,1.008301
2019-01-13T04:07:48.478Z,1.018372
2019-01-13T04:08:58.059Z,1.098938
2019-01-13T04:10:07.640Z,1.169434
2019-01-13T04:11:17.196Z,1.229858
2019-01-13T04:12:26.732Z,1.239929
2019-01-13T04:13:36.318Z,1.310425
2019-01-13T04:14:45.838Z,1.350708
2019-01-13T04:15:55.392Z,1.37085
2019-01-13T04:17:05.071Z,1.421204
2019-01-13T04:18:14.745Z,1.421204
2019-01-13T04:19:24.399Z,1.421204
2019-01-13T04:20:34.069Z,1.411133
2019-01-13T04:21:43.612Z,1.421204
2019-01-13T04:22:53.141Z,1.451416
2019-01-13T04:24:02.672Z,1.441345
2019-01-13T04:25:12.234Z,1.451416
2019-01-13T04:26:21.779Z,1.481628
2019-01-13T04:27:31.296Z,1.552124
2019-01-13T04:28:40.841Z,1.592407
2019-01-13T04:29:50.385Z,1.592407
2019-01-13T04:30:59.939Z,1.602478
2019-01-13T04:32:09.467Z,1.62262
2019-01-13T04:33:19.013Z,1.582336
2019-01-13T04:34:28.546Z,1.592407
2019-01-13T04:35:38.073Z,1.592407
2019-01-13T04:36:47.621Z,1.582336
2019-01-13T04:37:57.161Z,1.62262
2019-01-13T04:39:06.668Z,1.62262
2019-01-13T04:40:16.269Z,1.602478
2019-01-13T04:41:25.843Z,1.602478
2019-01-13T04:42:35.361Z,1.602478
2019-01-13T04:43:44.879Z,1.63269
2019-01-13T04:44:54.416Z,1.62262
2019-01-13T04:46:03.972Z,1.62262
2019-01-13T04:47:13.520Z,1.662903
2019-01-13T04:48:23.045Z,1.662903
2019-01-13T04:49:32.594Z,1.662903
2019-01-13T04:50:42.112Z,1.662903
2019-01-13T04:51:51.690Z,1.63269
2019-01-13T04:53:01.206Z,1.672974
2019-01-13T04:54:10.725Z,1.713257
2019-01-13T04:55:20.260Z,1.783752
2019-01-13T04:56:29.792Z,1.813965
2019-01-13T04:57:39.337Z,1.803894
2019-01-13T04:58:48.891Z,1.773682
2019-01-13T04:59:58.408Z,1.763611
2019-01-13T05:01:07.941Z,1.733398
2019-01-13T05:02:17.489Z,1.733398
2019-01-13T05:03:27.019Z,1.743469
2019-01-13T05:04:36.544Z,1.733398
2019-01-13T05:05:46.089Z,1.733398
2019-01-13T05:06:55.648Z,1.763611
2019-01-13T05:08:05.155Z,1.763611
2019-01-13T05:09:14.667Z,1.763611
2019-01-13T05:10:24.202Z,1.733398
2019-01-13T05:11:33.767Z,1.713257
2019-01-13T05:12:43.294Z,1.713257
2019-01-13T05:13:52.829Z,1.733398
2019-01-13T05:15:02.399Z,1.733398
2019-01-13T05:16:11.929Z,1.713257
2019-01-13T05:17:21.474Z,1.703186
2019-01-13T05:18:31.009Z,1.713257
2019-01-13T05:19:40.544Z,1.743469
2019-01-13T05:20:50.091Z,1.713257
2019-01-13T05:21:59.683Z,1.713257
2019-01-13T05:23:09.263Z,1.733398
2019-01-13T05:24:18.791Z,1.703186
2019-01-13T05:25:28.360Z,1.703186
2019-01-13T05:26:37.887Z,1.743469
2019-01-13T05:27:47.415Z,1.713257
2019-01-13T05:28:56.936Z,1.733398
2019-01-13T05:30:06.473Z,1.773682
2019-01-13T05:31:16.017Z,1.803894
2019-01-13T05:32:25.546Z,1.803894
2019-01-13T05:33:35.097Z,1.803894
2019-01-13T05:34:44.606Z,1.803894
2019-01-13T05:35:54.250Z,1.844177
2019-01-13T05:37:03.822Z,1.854248
2019-01-13T05:38:13.351Z,1.88446
2019-01-13T05:39:22.890Z,1.87439
2019-01-13T05:40:32.428Z,1.813965
2019-01-13T05:41:42.005Z,1.813965
2019-01-13T05:42:51.548Z,1.813965
2019-01-13T05:44:01.084Z,1.854248
2019-01-13T05:45:10.595Z,1.87439
2019-01-13T05:46:20.143Z,1.844177
2019-01-13T05:47:29.662Z,1.87439
2019-01-13T05:48:39.217Z,1.87439
2019-01-13T05:49:48.734Z,1.854248
2019-01-13T05:50:58.259Z,1.854248
2019-01-13T05:52:07.830Z,1.854248
2019-01-13T05:53:17.359Z,1.854248
2019-01-13T05:54:26.903Z,1.854248
2019-01-13T05:55:36.442Z,1.87439
2019-01-13T05:56:45.977Z,1.88446
2019-01-13T05:57:55.498Z,1.88446
2019-01-13T05:59:05.066Z,1.88446
2019-01-13T06:00:14.564Z,1.894531
2019-01-13T06:01:24.103Z,1.914673
2019-01-13T06:02:34.635Z,1.914673
2019-01-13T06:03:44.177Z,1.87439
2019-01-13T06:04:53.736Z,1.87439
2019-01-13T06:06:03.264Z,1.88446
2019-01-13T06:07:12.805Z,1.924744
2019-01-13T06:08:22.338Z,1.965027
2019-01-13T06:09:31.859Z,1.954956
2019-01-13T06:10:41.388Z,1.944885
2019-01-13T06:11:50.935Z,1.944885
2019-01-13T06:13:00.466Z,1.965027
2019-01-13T06:14:09.986Z,1.954956
2019-01-13T06:15:19.533Z,1.965027
2019-01-13T06:16:29.072Z,1.965027
2019-01-13T06:17:38.586Z,1.954956
2019-01-13T06:18:48.117Z,1.944885
2019-01-13T06:19:57.657Z,1.954956
2019-01-13T06:21:07.190Z,1.944885
2019-01-13T06:22:16.745Z,1.914673
2019-01-13T06:23:26.283Z,1.944885
2019-01-13T06:24:35.817Z,1.965027
2019-01-13T06:25:45.360Z,1.944885
2019-01-13T06:26:54.899Z,1.954956
2019-01-13T06:28:04.440Z,1.954956
2019-01-13T06:29:13.969Z,1.944885
2019-01-13T06:30:23.505Z,1.954956
2019-01-13T06:31:33.044Z,1.965027
2019-01-13T06:32:42.562Z,1.965027
2019-01-13T06:33:52.103Z,1.995239
2019-01-13T06:35:01.664Z,1.985168
2019-01-13T06:36:11.210Z,1.985168
2019-01-13T06:37:20.762Z,1.965027
2019-01-13T06:38:30.292Z,1.985168
2019-01-13T06:39:39.819Z,1.985168
2019-01-13T06:40:49.368Z,1.965027
2019-01-13T06:41:58.930Z,1.954956
2019-01-13T06:43:08.538Z,1.954956
2019-01-13T06:44:18.076Z,1.985168
2019-01-13T06:45:27.632Z,1.985168
2019-01-13T06:46:37.210Z,1.995239
2019-01-13T06:47:46.813Z,1.965027
2019-01-13T06:48:56.361Z,1.995239
2019-01-13T06:50:05.896Z,1.985168
2019-01-13T06:51:15.438Z,1.995239
2019-01-13T06:52:24.972Z,1.995239
2019-01-13T06:53:34.496Z,1.985168
2019-01-13T06:54:44.044Z,1.965027
2019-01-13T06:55:53.584Z,1.995239
2019-01-13T06:57:03.192Z,1.954956
2019-01-13T06:58:12.710Z,1.954956
2019-01-13T06:59:22.240Z,1.954956
2019-01-13T07:00:32.004Z,1.944885
2019-01-13T07:01:41.309Z,1.944885
2019-01-13T07:02:50.841Z,1.954956
2019-01-13T07:04:00.387Z,1.965027
2019-01-13T07:05:09.976Z,1.965027
2019-01-13T07:06:19.523Z,1.965027
2019-01-13T07:07:29.045Z,1.985168
2019-01-13T07:08:38.603Z,1.985168
2019-01-13T07:09:48.131Z,1.985168
2019-01-13T07:10:57.660Z,1.995239
2019-01-13T07:12:08.219Z,2.015381
2019-01-13T07:13:17.752Z,2.035522
2019-01-13T07:14:27.286Z,2.035522
2019-01-13T07:15:36.793Z,2.075806
2019-01-13T07:16:46.335Z,2.095947
2019-01-13T07:17:55.896Z,2.065735
2019-01-13T07:19:05.408Z,2.075806
2019-01-13T07:20:14.940Z,2.075806
2019-01-13T07:21:24.462Z,2.075806
2019-01-13T07:22:34.028Z,2.095947
2019-01-13T07:23:43.557Z,2.075806
2019-01-13T07:24:54.113Z,2.095947
2019-01-13T07:26:03.666Z,2.065735
2019-01-13T07:27:13.234Z,2.065735
2019-01-13T07:28:22.775Z,2.065735
2019-01-13T07:29:32.323Z,2.075806
2019-01-13T07:30:41.855Z,2.095947
2019-01-13T07:31:51.413Z,2.075806
2019-01-13T07:33:00.986Z,2.055664
2019-01-13T07:34:10.502Z,2.035522
2019-01-13T07:35:20.021Z,2.035522
2019-01-13T07:36:29.578Z,2.055664
2019-01-13T07:37:39.149Z,2.065735
2019-01-13T07:38:48.702Z,2.065735
2019-01-13T07:39:58.235Z,2.075806
2019-01-13T07:41:07.797Z,2.065735
2019-01-13T07:42:17.342Z,2.055664
2019-01-13T07:43:26.888Z,2.035522
2019-01-13T07:44:36.440Z,2.065735
2019-01-13T07:45:45.995Z,2.075806
2019-01-13T07:46:55.521Z,2.095947
2019-01-13T07:48:05.096Z,2.095947
2019-01-13T07:49:14.668Z,2.095947
2019-01-13T07:50:24.246Z,2.095947
2019-01-13T07:51:33.774Z,2.095947
2019-01-13T07:52:43.353Z,2.12616
2019-01-13T07:53:52.891Z,2.13623
2019-01-13T07:55:02.406Z,2.13623
2019-01-13T07:56:11.963Z,2.146301
2019-01-13T07:57:21.497Z,2.166443
2019-01-13T07:58:31.040Z,2.196655
2019-01-13T07:59:40.578Z,2.146301
2019-01-13T08:00:50.124Z,2.166443
2019-01-13T08:01:59.644Z,2.13623
2019-01-13T08:03:09.213Z,2.146301
2019-01-13T08:04:18.750Z,2.13623
2019-01-13T08:05:28.282Z,2.176514
2019-01-13T08:06:37.801Z,2.196655
2019-01-13T08:07:47.357Z,2.216797
2019-01-13T08:08:57.891Z,2.247009
2019-01-13T08:10:07.425Z,2.247009
2019-01-13T08:11:16.950Z,2.247009
2019-01-13T08:12:26.474Z,2.25708
2019-01-13T08:13:35.002Z,2.247009
2019-01-13T08:14:44.527Z,2.25708
2019-01-13T08:15:54.078Z,2.277222
2019-01-13T08:17:03.626Z,2.307434
2019-01-13T08:18:13.161Z,2.317505
2019-01-13T08:19:22.713Z,2.317505
2019-01-13T08:20:32.244Z,2.347717
2019-01-13T08:21:41.800Z,2.357788
2019-01-13T08:22:51.329Z,2.357788
2019-01-13T08:24:00.873Z,2.357788
2019-01-13T08:25:10.441Z,2.388
2019-01-13T08:26:19.999Z,2.37793
2019-01-13T08:27:29.540Z,2.37793
2019-01-13T08:28:39.062Z,2.418213
2019-01-13T08:29:48.583Z,2.428284
2019-01-13T08:30:58.127Z,2.428284
2019-01-13T08:32:07.654Z,2.428284
2019-01-13T08:33:17.238Z,2.428284
2019-01-13T08:34:26.775Z,2.428284
2019-01-13T08:35:36.304Z,2.458496
2019-01-13T08:36:45.849Z,2.488708
2019-01-13T08:37:55.414Z,2.528992
2019-01-13T08:39:04.997Z,2.539062
2019-01-13T08:40:14.551Z,2.569275
2019-01-13T08:41:24.065Z,2.569275
2019-01-13T08:42:33.629Z,2.599487
2019-01-13T08:43:43.171Z,2.599487
2019-01-13T08:44:52.713Z,2.609558
2019-01-13T08:46:02.219Z,2.609558
2019-01-13T08:47:11.776Z,2.639771
2019-01-13T08:48:21.314Z,2.680054
2019-01-13T08:49:31.675Z,2.750549
2019-01-13T08:50:40.369Z,2.770691
2019-01-13T08:51:49.889Z,2.790833
2019-01-13T08:52:59.452Z,2.821045
2019-01-13T08:54:08.999Z,2.851257
2019-01-13T08:55:18.522Z,2.851257
2019-01-13T08:56:28.054Z,2.861328
2019-01-13T08:57:37.603Z,2.861328
2019-01-13T08:58:47.171Z,2.861328
2019-01-13T08:59:56.720Z,2.871399
2019-01-13T09:01:06.277Z,2.871399
2019-01-13T09:02:15.822Z,2.871399
2019-01-13T09:03:25.384Z,2.871399
2019-01-13T09:04:34.947Z,2.861328
2019-01-13T09:05:44.483Z,2.871399
2019-01-13T09:06:54.024Z,2.851257
2019-01-13T09:08:03.647Z,2.871399
2019-01-13T09:09:13.227Z,2.871399
2019-01-13T09:10:22.803Z,2.871399
2019-01-13T09:11:32.320Z,2.871399
2019-01-13T09:12:41.877Z,2.901611
2019-01-13T09:13:52.400Z,2.901611
2019-01-13T09:15:01.914Z,2.891541
2019-01-13T09:16:11.460Z,2.891541
2019-01-13T09:17:21.000Z,2.891541
2019-01-13T09:18:30.595Z,2.871399
2019-01-13T09:19:40.138Z,2.861328
2019-01-13T09:20:49.673Z,2.861328
2019-01-13T09:21:59.191Z,2.861328
2019-01-13T09:23:08.748Z,2.861328
2019-01-13T09:24:18.328Z,2.871399
2019-01-13T09:25:27.988Z,2.901611
2019-01-13T09:26:38.963Z,2.982178
2019-01-13T09:27:49.802Z,3.01239
2019-01-13T09:28:59.838Z,3.042603
2019-01-13T09:30:09.341Z,3.082886
2019-01-13T09:31:19.345Z,3.113098
2019-01-13T09:32:28.959Z,3.183594
2019-01-13T09:33:39.662Z,3.213806
2019-01-13T09:34:49.295Z,3.193665
2019-01-13T09:35:58.868Z,3.183594
2019-01-13T09:37:08.488Z,3.223877
2019-01-13T09:38:18.172Z,3.223877
2019-01-13T09:39:27.693Z,3.223877
2019-01-13T09:40:38.342Z,3.233948
2019-01-13T09:41:47.996Z,3.213806
2019-01-13T09:42:57.631Z,3.163452
2019-01-13T09:44:07.183Z,3.163452
2019-01-13T09:45:16.745Z,3.113098
2019-01-13T09:46:26.294Z,3.13324
2019-01-13T09:47:35.855Z,3.13324
2019-01-13T09:48:45.472Z,3.143311
2019-01-13T09:49:55.043Z,3.163452
2019-01-13T09:51:04.662Z,3.13324
2019-01-13T09:52:14.238Z,3.113098
2019-01-13T09:53:25.278Z,3.082886
2019-01-13T09:54:33.441Z,3.082886
2019-01-13T09:55:43.045Z,3.103027
2019-01-13T09:56:52.629Z,3.113098
2019-01-13T09:58:02.263Z,3.113098
2019-01-13T09:59:11.986Z,3.113098
2019-01-13T10:00:21.581Z,3.13324
2019-01-13T10:01:31.117Z,3.143311
2019-01-13T10:02:46.560Z,3.183594
2019-01-13T10:03:50.411Z,3.213806
2019-01-13T10:05:00.008Z,3.254089
2019-01-13T10:06:09.650Z,3.26416
2019-01-13T10:07:19.185Z,3.294373
2019-01-13T10:08:29.051Z,3.314514
2019-01-13T10:09:38.674Z,3.324585
2019-01-13T10:10:48.309Z,3.294373
2019-01-13T10:11:57.835Z,3.314514
2019-01-13T10:13:07.444Z,3.294373
2019-01-13T10:14:16.998Z,3.284302
2019-01-13T10:15:26.592Z,3.294373
2019-01-13T10:16:36.150Z,3.26416
2019-01-13T10:17:45.748Z,3.26416
2019-01-13T10:18:55.306Z,3.284302
2019-01-13T10:20:05.199Z,3.284302
2019-01-13T10:21:17.307Z,3.294373
2019-01-13T10:22:26.873Z,3.254089
2019-01-13T10:23:36.420Z,3.26416
2019-01-13T10:24:45.964Z,3.233948
2019-01-13T10:25:55.489Z,3.233948
2019-01-13T10:27:05.021Z,3.233948
2019-01-13T10:28:14.587Z,3.223877
2019-01-13T10:29:24.217Z,3.193665
2019-01-13T10:30:33.736Z,3.213806
2019-01-13T10:31:43.262Z,3.213806
2019-01-13T10:32:55.746Z,3.213806
2019-01-13T10:34:02.359Z,3.213806
2019-01-13T10:35:11.867Z,3.193665
2019-01-13T10:36:21.410Z,3.193665
2019-01-13T10:37:30.939Z,3.193665
2019-01-13T10:38:40.491Z,3.213806
2019-01-13T10:39:50.025Z,3.163452
2019-01-13T10:40:59.561Z,3.163452
2019-01-13T10:42:09.082Z,3.143311
2019-01-13T10:43:18.626Z,3.13324
2019-01-13T10:44:28.210Z,3.072815
2019-01-13T10:45:37.778Z,3.032532
2019-01-13T10:46:47.297Z,2.982178
2019-01-13T10:47:56.818Z,2.931824
2019-01-13T10:49:06.409Z,2.871399
2019-01-13T10:50:15.929Z,2.861328
2019-01-13T10:51:25.458Z,2.831116
2019-01-13T10:52:34.988Z,2.831116
2019-01-13T10:53:44.562Z,2.800903
2019-01-13T10:54:54.101Z,2.790833
2019-01-13T10:56:03.646Z,2.740479
2019-01-13T10:57:13.169Z,2.710266
2019-01-13T10:58:22.720Z,2.690125
2019-01-13T10:59:32.320Z,2.669983
2019-01-13T11:00:41.851Z,2.619629
2019-01-13T11:01:51.470Z,2.569275
2019-01-13T11:03:02.147Z,2.50885
2019-01-13T11:04:10.546Z,2.488708
2019-01-13T11:05:20.097Z,2.468567
2019-01-13T11:06:29.605Z,2.458496
2019-01-13T11:07:39.138Z,2.418213
2019-01-13T11:08:48.695Z,2.418213
2019-01-13T11:09:58.222Z,2.388
2019-01-13T11:11:07.773Z,2.37793
2019-01-13T11:12:17.326Z,2.357788
2019-01-13T11:13:26.840Z,2.357788
2019-01-13T11:14:36.410Z,2.327576
2019-01-13T11:15:45.916Z,2.317505
2019-01-13T11:16:55.451Z,2.307434
2019-01-13T11:18:05.021Z,2.307434
2019-01-13T11:19:14.576Z,2.25708
2019-01-13T11:20:24.141Z,2.25708
2019-01-13T11:21:33.695Z,2.236938
2019-01-13T11:22:43.301Z,2.236938
2019-01-13T11:23:52.889Z,2.196655
2019-01-13T11:25:03.422Z,2.196655
2019-01-13T11:26:12.983Z,2.176514
2019-01-13T11:27:22.514Z,2.166443
2019-01-13T11:28:32.067Z,2.166443
2019-01-13T11:29:41.628Z,2.146301
2019-01-13T11:30:51.191Z,2.106018
2019-01-13T11:32:00.741Z,2.095947
2019-01-13T11:33:10.262Z,2.095947
2019-01-13T11:34:20.825Z,2.095947
2019-01-13T11:35:30.334Z,2.065735
2019-01-13T11:36:39.903Z,2.055664
2019-01-13T11:37:49.481Z,2.015381
2019-01-13T11:38:59.083Z,1.995239
2019-01-13T11:40:08.682Z,1.954956
2019-01-13T11:41:18.219Z,1.954956
2019-01-13T11:42:27.815Z,1.944885
2019-01-13T11:43:37.345Z,1.944885
2019-01-13T11:44:46.911Z,1.924744
2019-01-13T11:45:56.455Z,1.894531
2019-01-13T11:47:05.984Z,1.88446
2019-01-13T11:48:15.501Z,1.87439
2019-01-13T11:49:25.125Z,1.854248
2019-01-13T11:50:34.678Z,1.844177
2019-01-13T11:51:44.227Z,1.813965
2019-01-13T11:52:53.755Z,1.813965
2019-01-13T11:54:03.343Z,1.783752
2019-01-13T11:55:12.926Z,1.773682
2019-01-13T11:56:22.482Z,1.773682
2019-01-13T11:57:32.012Z,1.773682
2019-01-13T11:58:41.572Z,1.713257
2019-01-13T11:59:51.127Z,1.683044
2019-01-13T12:01:00.668Z,1.683044
2019-01-13T12:02:10.195Z,1.683044
2019-01-13T12:03:19.746Z,1.672974
2019-01-13T12:04:30.370Z,1.713257
2019-01-13T12:05:39.921Z,1.683044
2019-01-13T12:06:49.473Z,1.672974
2019-01-13T12:07:59.001Z,1.63269
2019-01-13T12:09:08.574Z,1.63269
2019-01-13T12:10:18.148Z,1.602478
2019-01-13T12:11:27.694Z,1.602478
2019-01-13T12:12:37.232Z,1.602478
2019-01-13T12:13:47.892Z,1.592407
2019-01-13T12:14:56.332Z,1.582336
2019-01-13T12:16:05.852Z,1.602478
2019-01-13T12:17:15.381Z,1.62262
2019-01-13T12:18:24.903Z,1.602478
2019-01-13T12:19:35.453Z,1.592407
2019-01-13T12:20:45.004Z,1.592407
2019-01-13T12:21:55.984Z,1.582336
2019-01-13T12:23:04.116Z,1.582336
2019-01-13T12:24:13.681Z,1.582336
2019-01-13T12:25:23.224Z,1.562195
2019-01-13T12:26:32.755Z,1.552124
2019-01-13T12:27:42.291Z,1.582336
2019-01-13T12:28:51.812Z,1.552124
2019-01-13T12:30:01.382Z,1.582336
2019-01-13T12:31:10.999Z,1.562195
2019-01-13T12:32:20.565Z,1.582336
2019-01-13T12:33:30.098Z,1.592407
2019-01-13T12:34:39.662Z,1.592407
2019-01-13T12:35:49.293Z,1.592407
2019-01-13T12:36:58.872Z,1.62262
2019-01-13T12:38:09.662Z,1.602478
2019-01-13T12:39:19.228Z,1.592407
2019-01-13T12:40:28.761Z,1.582336
2019-01-13T12:41:38.304Z,1.562195
2019-01-13T12:42:47.840Z,1.582336
2019-01-13T12:43:57.373Z,1.592407
2019-01-13T12:45:06.947Z,1.562195
2019-01-13T12:46:16.485Z,1.582336
2019-01-13T12:47:26.016Z,1.552124
2019-01-13T12:48:35.567Z,1.562195
2019-01-13T12:49:45.162Z,1.562195
2019-01-13T12:50:54.697Z,1.562195
2019-01-13T12:52:04.227Z,1.592407
2019-01-13T12:53:13.760Z,1.62262
2019-01-13T12:54:23.334Z,1.63269
2019-01-13T12:55:32.869Z,1.62262
2019-01-13T12:56:42.411Z,1.62262
2019-01-13T12:57:51.945Z,1.63269
2019-01-13T12:59:01.505Z,1.62262
2019-01-13T13:00:11.086Z,1.63269
2019-01-13T13:01:20.667Z,1.63269
2019-01-13T13:02:30.262Z,1.62262
2019-01-13T13:03:39.775Z,1.63269
2019-01-13T13:04:49.358Z,1.63269
2019-01-13T13:05:58.897Z,1.63269
2019-01-13T13:07:08.426Z,1.63269
2019-01-13T13:08:17.981Z,1.662903
2019-01-13T13:09:27.549Z,1.63269
2019-01-13T13:10:37.085Z,1.62262
2019-01-13T13:11:46.613Z,1.63269
2019-01-13T13:12:56.153Z,1.662903
2019-01-13T13:14:05.713Z,1.703186
2019-01-13T13:15:15.322Z,1.703186
2019-01-13T13:16:24.857Z,1.672974
2019-01-13T13:17:34.391Z,1.683044
2019-01-13T13:18:43.945Z,1.662903
2019-01-13T13:19:53.526Z,1.63269
2019-01-13T13:21:03.057Z,1.63269
2019-01-13T13:22:12.602Z,1.62262
2019-01-13T13:23:22.108Z,1.63269
2019-01-13T13:24:31.676Z,1.62262
2019-01-13T13:25:41.215Z,1.672974
2019-01-13T13:26:50.742Z,1.672974
2019-01-13T13:28:00.288Z,1.662903
2019-01-13T13:29:09.884Z,1.62262
2019-01-13T13:30:19.776Z,1.63269
2019-01-13T13:31:29.321Z,1.63269
2019-01-13T13:32:38.843Z,1.63269
2019-01-13T13:33:48.373Z,1.63269
2019-01-13T13:34:57.959Z,1.602478
2019-01-13T13:36:07.500Z,1.592407
2019-01-13T13:37:17.035Z,1.592407
2019-01-13T13:38:26.563Z,1.562195
2019-01-13T13:39:36.151Z,1.562195
2019-01-13T13:40:45.714Z,1.562195